Time;durP1;ratioP1;P1;durP2;ratioP2;P2;SDS_P1;SDS_P2;PMS_P1;PMS_P2;Temp;Humidity;BMP_temperature;BMP_pressure;BME280_temperature;BME280_humidity;BME280_pressure;Samples;Min_cycle;Max_cycle;Signal;HPM_P1;HPM_P2
2022/12/21 00:02:01;;;;;;;11.90;6.63;;;;;;;16.31;57.80;96578.94;10442396;28;20079;-28
2022/12/21 00:07:01;;;;;;;9.73;5.83;;;;;;;16.31;58.24;96563.78;10431578;28;20028;-28
2022/12/21 00:12:02;;;;;;;11.60;7.10;;;;;;;16.32;57.99;96573.03;10433473;28;20082;-28
2022/12/21 00:17:02;;;;;;;10.93;6.88;;;;;;;16.34;57.49;96575.56;10400474;28;1040002;-27
2022/12/21 00:22:02;;;;;;;11.57;6.07;;;;;;;16.32;57.77;96573.03;10437106;28;20028;-28
2022/12/21 00:27:03;;;;;;;8.27;5.43;;;;;;;16.33;57.77;96573.88;10436275;28;20121;-28
2022/12/21 00:32:03;;;;;;;10.80;6.20;;;;;;;16.33;58.26;96567.16;10432745;28;20625;-29
2022/12/21 00:37:04;;;;;;;10.23;6.00;;;;;;;16.32;57.43;96559.56;10436976;28;20029;-30
2022/12/21 00:42:04;;;;;;;9.85;5.68;;;;;;;16.32;57.77;96557.88;10433181;28;20037;-29
2022/12/21 00:47:05;;;;;;;8.80;5.38;;;;;;;16.33;57.60;96553.66;10436333;28;20028;-28
2022/12/21 00:52:05;;;;;;;13.30;6.00;;;;;;;16.31;58.16;96550.28;10433818;28;20033;-28
2022/12/21 00:57:06;;;;;;;11.20;5.80;;;;;;;16.31;58.57;96565.44;10429687;28;20469;-28
2022/12/21 01:02:06;;;;;;;10.25;6.00;;;;;;;16.30;58.20;96558.72;10440873;28;20040;-28
2022/12/21 01:07:06;;;;;;;9.77;6.23;;;;;;;16.30;57.93;96577.22;10438580;28;20029;-29
2022/12/21 01:12:07;;;;;;;7.47;5.20;;;;;;;16.30;58.00;96573.88;10447413;28;20032;-28
2022/12/21 01:17:07;;;;;;;7.73;5.37;;;;;;;16.13;57.83;96538.38;10441899;28;21542;-29
2022/12/21 01:22:07;;;;;;;7.83;5.13;;;;;;;16.30;57.71;96567.13;10446852;28;20024;-28
2022/12/21 01:27:08;;;;;;;7.37;5.40;;;;;;;16.13;57.59;96553.53;10441348;28;20283;-29
2022/12/21 01:32:09;;;;;;;9.55;5.38;;;;;;;16.30;57.84;96579.75;10438853;28;20484;-28
2022/12/21 01:37:09;;;;;;;8.47;5.27;;;;;;;16.30;57.94;96574.69;10447300;28;20020;-28
2022/12/21 01:42:13;;;;;;;7.67;5.17;;;;;;;16.25;57.61;96561.22;10446093;28;20029;-29
2022/12/21 01:47:19;;;;;;;7.78;4.90;;;;;;;16.32;57.44;96577.25;10434796;28;20303;-28
2022/12/21 01:52:20;;;;;;;;;;;;;;;16.31;57.88;96570.50;10435217;28;20029;-30
2022/12/21 01:57:22;;;;;;;8.27;5.28;;;;;;;16.29;57.37;96567.94;10433875;28;20343;-28
2022/12/21 02:02:32;;;;;;;10.88;5.63;;;;;;;16.30;57.54;96569.63;10446010;28;20037;-28
2022/12/21 02:07:34;;;;;;;9.13;5.10;;;;;;;16.30;57.39;96554.47;10429631;28;20044;-29
2022/12/21 02:12:35;;;;;;;9.05;5.15;;;;;;;16.29;57.47;96552.78;10441743;28;20068;-28
2022/12/21 02:18:09;;;;;;;7.57;4.97;;;;;;;16.30;58.32;96549.44;10437337;28;20029;-29
2022/12/21 02:23:54;;;;;;;8.25;4.95;;;;;;;16.30;58.61;96554.47;10446723;28;20036;-31
2022/12/21 02:29:10;;;;;;;9.02;5.10;;;;;;;16.30;58.02;96549.44;10441803;28;20045;-29
2022/12/21 02:34:22;;;;;;;8.35;4.72;;;;;;;16.30;57.76;96548.59;10441933;28;20036;-28
2022/12/21 02:39:46;;;;;;;7.47;4.28;;;;;;;16.30;57.63;96553.66;10444331;28;20036;-29
2022/12/21 02:44:55;;;;;;;6.70;4.43;;;;;;;16.29;57.37;96557.03;10425571;28;20120;-29
2022/12/21 02:50:02;;;;;;;9.90;5.22;;;;;;;16.30;57.60;96546.91;10444776;28;20099;-29
2022/12/21 02:55:03;;;;;;;10.20;5.80;;;;;;;16.28;57.50;96548.59;10438136;28;20540;-29
2022/12/21 03:00:08;;;;;;;6.07;4.47;;;;;;;16.31;57.45;96550.28;10434837;28;20033;-28
2022/12/21 03:05:27;;;;;;;9.80;4.95;;;;;;;16.25;57.19;96541.00;10436388;28;20026;-29
2022/12/21 03:10:49;;;;;;;7.45;4.45;;;;;;;16.29;57.03;96545.22;10437114;28;20595;-28
2022/12/21 03:16:08;;;;;;;6.38;4.55;;;;;;;16.29;57.65;96562.06;10431882;28;20037;-29
2022/12/21 03:21:16;;;;;;;8.48;5.05;;;;;;;16.28;57.47;96551.09;10439653;28;20025;-28
2022/12/21 03:26:25;;;;;;;8.43;4.80;;;;;;;16.32;57.60;96546.91;10433339;28;20032;-29
2022/12/21 03:31:34;;;;;;;7.18;4.22;;;;;;;16.31;57.61;96550.28;10435589;28;20374;-28
2022/12/21 03:36:45;;;;;;;8.50;4.90;;;;;;;16.31;57.56;96546.09;10437936;28;20421;-28
2022/12/21 03:41:53;;;;;;;6.80;4.53;;;;;;;16.28;57.78;96541.00;10433336;28;20033;-28
2022/12/21 03:47:02;;;;;;;5.57;4.25;;;;;;;16.27;58.31;96549.41;10441381;28;20094;-28
2022/12/21 03:52:09;;;;;;;7.45;4.50;;;;;;;16.30;58.05;96539.31;10434589;28;20068;-28
2022/12/21 03:57:11;;;;;;;6.95;4.07;;;;;;;16.25;57.91;96530.91;10436646;28;20222;-29
2022/12/21 04:02:16;;;;;;;9.95;4.68;;;;;;;16.29;57.23;96521.66;10433551;28;20531;-29
2022/12/21 04:07:23;;;;;;;6.35;3.97;;;;;;;16.32;57.63;96532.63;10439270;28;20063;-28
2022/12/21 04:12:37;;;;;;;5.10;4.18;;;;;;;16.30;57.48;96511.53;10435229;28;20408;-29
2022/12/21 04:17:39;;;;;;;7.55;4.75;;;;;;;16.30;57.61;96509.00;10430807;28;20481;-28
2022/12/21 04:28:07;;;;;;;6.07;4.07;;;;;;;16.30;57.40;96511.53;10426454;28;20044;-28
2022/12/21 04:33:11;;;;;;;5.28;3.50;;;;;;;16.31;56.94;96509.88;10445136;28;20067;-28
2022/12/21 04:38:11;;;;;;;10.70;4.38;;;;;;;16.30;56.98;96511.53;10434350;28;20044;-28
2022/12/21 04:43:11;;;;;;;6.73;3.77;;;;;;;16.31;57.23;96504.81;10452210;28;20031;-28
2022/12/21 04:48:12;;;;;;;6.73;4.33;;;;;;;16.27;57.04;96516.59;10442028;28;20030;-28
2022/12/21 04:53:12;;;;;;;5.38;3.63;;;;;;;16.32;57.12;96514.94;10447253;28;20032;-29
2022/12/21 04:58:12;;;;;;;5.47;4.30;;;;;;;16.33;56.75;96506.53;10443721;28;20089;-28
2022/12/21 05:03:13;;;;;;;7.73;3.73;;;;;;;16.32;57.18;96519.13;10439799;28;20567;-28
2022/12/21 05:08:13;;;;;;;6.67;3.93;;;;;;;16.34;58.06;96509.88;10436378;28;20383;-28
2022/12/21 05:13:13;;;;;;;7.10;3.90;;;;;;;16.36;57.47;96509.06;10424505;28;20694;-28
2022/12/21 05:18:14;;;;;;;6.57;3.90;;;;;;;16.39;57.07;96508.25;10407429;28;20275;-28
2022/12/21 05:23:14;;;;;;;7.57;3.63;;;;;;;16.37;56.66;96495.63;10405013;28;20017;-28
2022/12/21 05:28:14;;;;;;;4.97;3.50;;;;;;;16.37;57.36;96503.19;10393046;28;20307;-28
2022/12/21 05:33:15;;;;;;;4.30;3.17;;;;;;;16.36;57.29;96509.06;10398258;28;20051;-28
2022/12/21 05:38:16;;;;;;;7.80;4.13;;;;;;;16.39;57.72;96511.66;10400481;28;20037;-28
2022/12/21 05:43:16;;;;;;;6.28;3.90;;;;;;;16.33;57.30;96488.84;10393971;28;20029;-29
2022/12/21 05:48:16;;;;;;;5.67;3.67;;;;;;;16.39;57.18;96506.59;10381942;28;20067;-28
2022/12/21 05:53:17;;;;;;;4.03;3.23;;;;;;;16.40;57.44;96510.81;10391121;28;20299;-28
2022/12/21 05:58:18;;;;;;;4.63;3.87;;;;;;;16.40;57.75;96490.59;10397608;28;20028;-28
2022/12/21 06:03:20;;;;;;;6.78;4.20;;;;;;;16.35;58.46;96486.34;10394174;28;20040;-29
2022/12/21 06:08:21;;;;;;;7.15;4.20;;;;;;;16.37;57.90;96490.56;10390768;28;20037;-28
2022/12/21 06:13:21;;;;;;;7.73;4.97;;;;;;;16.36;58.17;96488.84;10390468;28;20059;-29
2022/12/21 06:18:23;;;;;;;5.93;4.03;;;;;;;16.37;58.13;96497.31;10385495;28;20040;-28
2022/12/21 06:23:24;;;;;;;9.43;5.27;;;;;;;16.36;58.78;96493.91;10379932;28;20379;-29
2022/12/21 06:28:25;;;;;;;10.88;6.25;;;;;;;16.36;59.07;96486.31;10392259;28;20036;-28
2022/12/21 06:33:25;;;;;;;10.55;8.18;;;;;;;16.36;59.66;96493.91;10392039;28;20036;-28
2022/12/21 06:38:26;;;;;;;15.60;10.07;;;;;;;16.34;59.05;96480.41;10390951;28;20048;-28
2022/12/21 06:43:29;;;;;;;22.08;13.55;;;;;;;16.42;59.45;96491.44;10391743;28;20041;-30
2022/12/21 06:48:31;;;;;;;14.50;10.18;;;;;;;16.19;59.64;96450.03;10441469;28;20040;-28
2022/12/21 06:53:35;;;;;;;15.30;9.40;;;;;;;16.36;59.44;96495.59;10440342;28;20037;-29
2022/12/21 06:58:35;;;;;;;13.60;8.23;;;;;;;16.32;59.15;96487.16;10433236;28;20552;-28
2022/12/21 07:03:37;;;;;;;14.85;8.20;;;;;;;16.41;60.20;96492.28;10441403;28;20031;-28
2022/12/21 07:08:38;;;;;;;11.70;7.65;;;;;;;16.32;59.70;96494.72;10432797;28;20515;-28
2022/12/21 07:13:40;;;;;;;17.73;8.25;;;;;;;16.35;60.17;96504.84;10426927;28;20027;-28
2022/12/21 07:18:41;;;;;;;18.38;7.95;;;;;;;16.34;59.37;96499.78;10445505;28;20028;-28
2022/12/21 07:23:43;;;;;;;18.52;8.18;;;;;;;16.33;59.10;96498.09;10439452;28;20512;-28
2022/12/21 07:28:43;;;;;;;15.13;8.02;;;;;;;16.30;59.38;96493.84;10439220;28;20029;-28
2022/12/21 07:33:44;;;;;;;13.98;7.80;;;;;;;16.31;58.85;96497.25;10440409;28;20022;-29
2022/12/21 07:38:45;;;;;;;13.07;6.97;;;;;;;16.29;59.34;96502.28;10430069;28;20060;-28
2022/12/21 07:43:46;;;;;;;13.68;7.40;;;;;;;16.27;59.74;96498.09;10440781;28;20036;-28
2022/12/21 07:48:55;;;;;;;9.90;6.57;;;;;;;16.26;59.76;96512.38;10430006;28;20032;-28
2022/12/21 07:53:55;;;;;;;10.73;6.18;;;;;;;16.27;59.35;96515.75;10436614;28;20036;-28
2022/12/21 07:58:56;;;;;;;10.47;5.87;;;;;;;16.19;59.08;96510.66;10428236;28;20039;-28
2022/12/21 08:03:57;;;;;;;11.57;6.50;;;;;;;16.27;59.27;96519.13;10439006;28;20061;-28
2022/12/21 08:08:57;;;;;;;11.52;6.32;;;;;;;16.28;58.70;96522.50;10442516;28;20854;-28
2022/12/21 08:13:58;;;;;;;9.43;6.00;;;;;;;16.28;59.00;96533.44;10433663;28;20025;-28
2022/12/21 08:18:58;;;;;;;11.30;5.40;;;;;;;16.26;59.04;96530.06;10451628;28;20055;-30
2022/12/21 08:23:58;;;;;;;10.07;6.27;;;;;;;16.26;58.80;96542.69;10434232;28;20040;-30
2022/12/21 08:28:59;;;;;;;10.37;6.43;;;;;;;16.26;59.03;96542.69;10447675;28;20279;-29
2022/12/21 08:33:59;;;;;;;8.73;6.13;;;;;;;16.27;58.77;96551.13;10444515;28;20807;-28
2022/12/21 08:39:00;;;;;;;9.20;6.00;;;;;;;16.32;58.30;96546.91;10450939;28;20036;-28
2022/12/21 08:44:00;;;;;;;8.27;5.50;;;;;;;16.34;58.30;96538.53;10447886;28;20039;-28
2022/12/21 08:49:01;;;;;;;6.50;4.50;;;;;;;16.36;57.85;96546.94;10438562;28;20032;-28
2022/12/21 08:54:01;;;;;;;8.50;5.60;;;;;;;16.37;57.78;96541.09;10438150;28;20480;-29
2022/12/21 08:59:04;;;;;;;7.63;5.10;;;;;;;16.32;58.29;96540.19;10437893;28;20031;-29
2022/12/21 09:04:04;;;;;;;7.50;5.07;;;;;;;16.37;58.33;96553.72;10435113;28;20037;-28
2022/12/21 09:09:05;;;;;;;7.80;5.63;;;;;;;16.35;58.70;96547.78;10438812;28;20519;-28
2022/12/21 09:14:05;;;;;;;7.32;5.40;;;;;;;16.36;58.38;96553.69;10434976;28;20465;-28
2022/12/21 09:19:05;;;;;;;6.40;4.87;;;;;;;16.36;57.96;96579.78;10449548;28;20021;-29
2022/12/21 09:24:06;;;;;;;8.67;4.73;;;;;;;16.34;58.41;96568.84;10448303;28;20628;-28
2022/12/21 09:29:09;;;;;;;7.05;5.13;;;;;;;16.28;57.97;96581.41;10441034;28;20303;-28
2022/12/21 09:34:10;;;;;;;8.00;5.40;;;;;;;16.35;57.83;96583.16;10444743;28;20033;-29
2022/12/21 09:39:11;;;;;;;8.15;4.43;;;;;;;16.33;57.92;96577.25;10433825;28;20110;-29
2022/12/21 09:44:37;;;;;;;11.75;4.95;;;;;;;16.34;58.04;96585.66;10445753;28;20025;-28
2022/12/21 09:50:01;;;;;;;8.15;4.55;;;;;;;16.32;57.81;96597.44;10430641;28;20039;-28
2022/12/21 09:55:22;;;;;;;6.47;4.70;;;;;;;16.13;57.84;96560.28;10446534;28;20396;-29
2022/12/21 10:00:24;;;;;;;5.85;4.20;;;;;;;16.33;57.94;96594.09;10439475;28;20035;-29
2022/12/21 10:05:52;;;;;;;5.78;4.57;;;;;;;16.32;58.25;96603.34;10439055;28;20036;-28
2022/12/21 10:11:18;;;;;;;7.22;4.90;;;;;;;16.30;58.05;96594.91;10435134;28;20159;-28
2022/12/21 10:16:31;;;;;;;5.47;4.18;;;;;;;16.31;57.83;96584.00;10435403;28;20168;-29
2022/12/21 10:21:37;;;;;;;7.03;4.45;;;;;;;16.32;57.98;96589.88;10442137;28;20033;-29
2022/12/21 10:26:38;;;;;;;4.28;3.22;;;;;;;16.27;58.55;96582.25;10437479;28;20024;-28
2022/12/21 10:31:46;;;;;;;5.47;4.15;;;;;;;16.28;58.39;96581.41;10441850;28;20037;-28
2022/12/21 10:36:47;;;;;;;5.97;4.43;;;;;;;16.22;58.40;96561.19;10432986;28;20535;-28
2022/12/21 10:42:00;;;;;;;5.47;4.35;;;;;;;16.30;58.02;96563.75;10446063;28;20039;-29
2022/12/21 10:47:01;;;;;;;5.43;3.85;;;;;;;16.29;57.40;96555.31;10442220;28;20047;-28
2022/12/21 10:52:40;;;;;;;6.33;4.17;;;;;;;16.27;57.75;96554.47;10435126;28;20029;-29
2022/12/21 10:57:41;;;;;;;6.25;4.18;;;;;;;16.27;57.74;96546.91;10434722;28;20295;-28
2022/12/21 11:02:45;;;;;;;4.67;3.90;;;;;;;16.28;58.03;96541.00;10430293;28;20025;-28
2022/12/21 11:07:46;;;;;;;4.93;3.50;;;;;;;16.27;57.86;96526.69;10442204;28;20025;-28
2022/12/21 11:12:52;;;;;;;4.85;4.10;;;;;;;16.24;57.59;96521.63;10435687;28;20029;-28
2022/12/21 11:17:52;;;;;;;5.82;4.00;;;;;;;16.30;57.64;96519.13;10446161;28;20358;-28
2022/12/21 11:22:56;;;;;;;6.20;4.50;;;;;;;16.33;57.64;96506.53;10431283;28;20024;-30
2022/12/21 11:27:59;;;;;;;7.30;3.72;;;;;;;16.36;57.46;96519.16;10445007;28;20382;-28
2022/12/21 11:33:01;;;;;;;4.68;3.35;;;;;;;16.36;57.80;96514.09;10441144;28;20035;-29
2022/12/21 11:38:03;;;;;;;42.30;6.45;;;;;;;16.43;57.09;96520.06;10436848;28;20021;-28
2022/12/21 11:43:14;;;;;;;20.83;4.72;;;;;;;16.45;58.11;96511.66;10434806;28;20033;-28
2022/12/21 11:48:36;;;;;;;9.80;4.03;;;;;;;16.41;58.90;96514.16;10429810;28;20515;-28
2022/12/21 11:53:48;;;;;;;11.55;3.95;;;;;;;16.34;59.06;96507.34;10441556;28;20020;-28
2022/12/21 11:59:09;;;;;;;10.93;3.65;;;;;;;16.41;57.28;96506.56;10439214;28;20037;-28
2022/12/21 12:04:26;;;;;;;20.20;4.80;;;;;;;16.47;57.94;96507.47;10437167;28;20043;-29
2022/12/21 12:09:50;;;;;;;13.90;4.18;;;;;;;16.51;57.32;96506.63;10437115;28;20043;-28
2022/12/21 12:15:29;;;;;;;9.25;4.07;;;;;;;16.52;58.07;96504.97;10434990;28;20029;-28
2022/12/21 12:20:48;;;;;;;10.73;3.80;;;;;;;16.53;57.25;96497.38;10441610;28;20044;-30
2022/12/21 12:25:51;;;;;;;10.20;3.95;;;;;;;16.56;57.11;96494.00;10434355;28;20113;-29
2022/12/21 12:31:22;;;;;;;13.95;3.58;;;;;;;16.58;56.88;96500.78;10432882;28;20086;-28
2022/12/21 12:36:29;;;;;;;7.90;3.30;;;;;;;16.53;57.54;96486.44;10428350;28;20025;-28
2022/12/21 12:41:55;;;;;;;8.25;3.60;;;;;;;16.55;56.99;96492.34;10441430;28;20111;-28
2022/12/21 12:47:06;;;;;;;10.27;3.58;;;;;;;16.53;57.51;96482.22;10433615;28;20048;-29
2022/12/21 12:52:16;;;;;;;6.68;3.25;;;;;;;16.53;57.32;96487.25;10435707;28;20028;-28
2022/12/21 12:57:37;;;;;;;7.38;3.25;;;;;;;16.53;57.29;96484.72;10437236;28;20024;-28
2022/12/21 13:03:22;;;;;;;7.82;3.72;;;;;;;16.48;57.79;96477.97;10428763;28;20067;-28
2022/12/21 13:08:26;;;;;;;8.20;3.80;;;;;;;16.43;57.90;96480.50;10429737;28;20105;-29
2022/12/21 13:13:35;;;;;;;9.25;4.10;;;;;;;16.45;58.03;96475.44;10437846;28;20064;-28
2022/12/21 13:18:44;;;;;;;11.35;3.72;;;;;;;16.44;58.13;96472.06;10434888;28;20055;-28
2022/12/21 13:23:50;;;;;;;7.18;3.38;;;;;;;16.45;57.32;96451.00;10431017;28;20083;-28
2022/12/21 13:29:01;;;;;;;6.43;3.75;;;;;;;16.47;57.08;96444.31;10434014;28;20086;-28
2022/12/21 13:34:10;;;;;;;6.63;3.63;;;;;;;16.46;57.03;96429.97;10446263;28;20057;-29
2022/12/21 13:39:17;;;;;;;6.65;3.92;;;;;;;16.45;56.99;96427.44;10443221;28;20029;-28
2022/12/21 13:44:53;;;;;;;6.20;3.60;;;;;;;16.42;57.44;96415.66;10448760;28;20063;-28
2022/12/21 13:50:22;;;;;;;5.15;3.08;;;;;;;16.42;57.38;96423.22;10432495;28;20029;-28
2022/12/21 13:56:00;;;;;;;6.82;3.17;;;;;;;16.40;57.36;96422.38;10439621;28;20017;-28
2022/12/21 14:01:19;;;;;;;6.63;3.15;;;;;;;16.38;58.08;96421.50;10435161;28;20124;-29
2022/12/21 14:06:56;;;;;;;5.63;3.53;;;;;;;16.39;57.22;96415.66;10436690;28;20043;-28
2022/12/21 14:12:32;;;;;;;4.45;2.80;;;;;;;16.42;57.23;96428.28;10440579;28;20029;-28
2022/12/21 14:17:41;;;;;;;4.45;2.92;;;;;;;16.41;57.84;96431.66;10439386;28;20033;-27
2022/12/21 14:22:44;;;;;;;6.03;2.90;;;;;;;16.42;57.59;96422.38;10446223;28;20025;-28
2022/12/21 14:28:10;;;;;;;4.85;2.95;;;;;;;16.41;57.97;96434.16;10436028;28;20111;-30
2022/12/21 14:33:17;;;;;;;8.68;3.33;;;;;;;16.35;58.03;96431.56;10442013;28;20396;-28
2022/12/21 14:38:20;;;;;;;6.15;3.10;;;;;;;16.35;58.06;96444.22;10436665;28;20025;-29
2022/12/21 14:43:21;;;;;;;3.50;2.70;;;;;;;16.35;58.24;96449.25;10442588;28;20052;-28
2022/12/21 14:48:27;;;;;;;7.03;2.63;;;;;;;16.35;57.49;96451.78;10434806;28;20366;-28
2022/12/21 14:53:27;;;;;;;2.90;2.50;;;;;;;16.36;57.87;96458.53;10441291;28;20083;-29
2022/12/21 14:58:32;;;;;;;4.10;2.88;;;;;;;16.38;57.24;96456.88;10441571;28;20037;-29
2022/12/21 15:03:46;;;;;;;3.97;2.45;;;;;;;16.38;57.15;96461.94;10441681;28;20029;-28
2022/12/21 15:08:47;;;;;;;3.55;2.47;;;;;;;16.33;57.33;96458.53;10436026;28;20108;-28
2022/12/21 15:14:01;;;;;;;4.97;2.42;;;;;;;16.39;57.12;96468.69;10438578;28;20051;-28
2022/12/21 15:19:11;;;;;;;3.08;2.78;;;;;;;16.38;57.20;96461.94;10445087;28;20055;-28
2022/12/21 15:24:31;;;;;;;3.95;2.28;;;;;;;16.37;57.66;96462.78;10433463;28;20075;-28
2022/12/21 15:29:51;;;;;;;3.25;2.35;;;;;;;16.36;57.43;96445.91;10439225;28;20135;-29
2022/12/21 15:34:57;;;;;;;4.38;2.70;;;;;;;16.35;57.17;96448.44;10432290;28;20099;-28
2022/12/21 15:40:15;;;;;;;4.10;2.85;;;;;;;16.42;57.91;96462.78;10438370;28;20476;-29
2022/12/21 15:45:29;;;;;;;5.47;2.70;;;;;;;16.40;57.78;96447.66;10437476;28;20095;-28
2022/12/21 15:50:36;;;;;;;7.93;2.17;;;;;;;16.45;56.25;96457.78;10434283;28;20037;-29
2022/12/21 15:55:37;;;;;;;5.47;2.30;;;;;;;16.47;55.79;96456.09;10436151;28;20095;-28
2022/12/21 16:01:03;;;;;;;6.50;2.10;;;;;;;16.49;56.63;96470.41;10429584;28;20436;-28
2022/12/21 16:06:10;;;;;;;3.67;2.20;;;;;;;16.56;57.04;96464.56;10436525;28;20053;-29
2022/12/21 16:11:27;;;;;;;6.25;1.83;;;;;;;16.59;57.59;96463.69;10427563;28;20032;-29
2022/12/21 16:16:27;;;;;;;6.60;2.13;;;;;;;16.63;57.44;96473.81;10432918;28;20481;-28
2022/12/21 16:21:33;;;;;;;5.45;2.30;;;;;;;16.62;57.84;96468.78;10444472;28;20036;-28
2022/12/21 16:26:36;;;;;;;5.50;2.67;;;;;;;16.64;57.53;96457.84;10432681;28;20067;-28
2022/12/21 16:31:36;;;;;;;6.25;2.30;;;;;;;16.77;57.80;96489.88;10429242;28;20408;-28
2022/12/21 16:36:37;;;;;;;4.53;2.22;;;;;;;16.77;57.74;96477.25;10441423;28;20044;-28
2022/12/21 16:41:38;;;;;;;3.25;1.73;;;;;;;16.77;57.86;96471.34;10451821;28;20064;-27
2022/12/21 16:46:38;;;;;;;4.68;2.15;;;;;;;16.92;57.76;96482.34;10447372;28;20025;-29
2022/12/21 16:51:40;;;;;;;6.28;2.50;;;;;;;16.92;57.99;96488.22;10448151;28;20489;-28
2022/12/21 16:56:47;;;;;;;5.60;2.10;;;;;;;16.98;58.03;96484.88;10432310;28;20055;-28
2022/12/21 17:01:52;;;;;;;10.20;1.88;;;;;;;16.95;58.05;96474.75;10438732;28;20544;-29
2022/12/21 17:06:59;;;;;;;7.20;2.38;;;;;;;17.00;58.32;96473.91;10442266;28;20040;-28
2022/12/21 17:12:03;;;;;;;6.40;2.40;;;;;;;16.98;58.17;96477.31;10432866;28;20041;-28
2022/12/21 17:17:19;;;;;;;6.90;2.30;;;;;;;17.04;58.15;96487.41;10442330;28;20036;-29
2022/12/21 17:22:25;;;;;;;8.00;2.30;;;;;;;17.06;57.80;96485.75;10445128;28;20448;-29
2022/12/21 17:27:46;;;;;;;7.03;2.58;;;;;;;17.06;57.53;96481.50;10433048;28;20061;-29
2022/12/21 17:32:48;;;;;;;5.40;2.00;;;;;;;17.10;57.59;96492.47;10446769;28;20048;-29
2022/12/21 17:37:52;;;;;;;8.05;2.33;;;;;;;17.02;56.54;96484.03;10438546;28;20106;-30
2022/12/21 17:42:53;;;;;;;5.63;2.30;;;;;;;16.94;57.12;96480.66;10449071;28;20045;-29
2022/12/21 17:47:53;;;;;;;9.50;3.43;;;;;;;16.87;57.34;96489.91;10442341;28;20451;-30
2022/12/21 17:52:55;;;;;;;10.18;4.47;;;;;;;16.86;57.19;96477.25;10440575;28;20345;-28
2022/12/21 17:57:56;;;;;;;11.57;5.82;;;;;;;16.86;57.17;96477.25;10442292;28;20025;-29
2022/12/21 18:03:04;;;;;;;13.15;5.50;;;;;;;16.87;57.36;96494.09;10437684;28;20725;-28
2022/12/21 18:08:05;;;;;;;15.50;6.13;;;;;;;16.83;57.92;96492.44;10437453;28;20057;-29
2022/12/21 18:13:06;;;;;;;15.10;5.78;;;;;;;16.81;57.66;96471.38;10432354;28;20167;-28
2022/12/21 18:18:13;;;;;;;18.60;5.97;;;;;;;16.81;58.27;96481.47;10439978;28;20660;-29
2022/12/21 18:23:26;;;;;;;14.70;6.68;;;;;;;16.81;57.83;96478.94;10446251;28;20037;-27
2022/12/21 18:28:33;;;;;;;17.70;6.68;;;;;;;16.73;57.56;96471.31;10435274;28;20509;-28
2022/12/21 18:33:42;;;;;;;;;;;;;;;16.67;57.43;96474.66;10434443;28;20495;-29
2022/12/21 18:38:42;;;;;;;18.77;5.35;;;;;;;16.62;56.01;96467.06;10443953;28;19927;-29
2022/12/21 18:43:43;;;;;;;11.05;5.75;;;;;;;16.63;54.63;96463.69;10439961;28;20068;-29
2022/12/21 18:48:45;;;;;;;15.60;5.18;;;;;;;16.74;54.82;96446.91;10447189;28;20033;-29
2022/12/21 18:53:45;;;;;;;25.73;4.95;;;;;;;16.78;54.64;96434.28;10434414;28;20083;-29
2022/12/21 18:58:46;;;;;;;26.50;5.80;;;;;;;16.75;55.29;96446.06;10432241;28;20112;-29
2022/12/21 19:03:51;;;;;;;13.55;5.60;;;;;;;16.64;55.89;96424.97;10440639;28;20033;-29
2022/12/21 19:08:55;;;;;;;17.48;5.90;;;;;;;16.67;56.58;96436.75;10429879;28;20048;-30
2022/12/21 19:13:56;;;;;;;11.60;5.32;;;;;;;16.65;54.27;96424.13;10430102;28;20603;-29
2022/12/21 19:19:00;;;;;;;16.05;4.85;;;;;;;16.63;54.17;96413.16;10432663;28;20123;-29
2022/12/21 19:24:04;;;;;;;15.45;4.80;;;;;;;16.67;54.41;96414.00;10436684;28;20139;-29
2022/12/21 19:29:11;;;;;;;15.43;5.65;;;;;;;16.64;53.88;96419.94;10427658;28;20090;-29
2022/12/21 19:34:11;;;;;;;15.98;4.65;;;;;;;16.61;55.32;96414.03;10439912;28;20420;-29
2022/12/21 19:39:35;;;;;;;13.02;4.25;;;;;;;16.59;55.80;96401.38;10427697;28;20036;-30
2022/12/21 19:44:37;;;;;;;13.48;4.78;;;;;;;16.58;55.77;96401.34;10440063;28;20037;-29
2022/12/21 19:49:37;;;;;;;14.75;5.30;;;;;;;16.54;56.93;96392.09;10426225;28;20079;-29
2022/12/21 19:54:38;;;;;;;11.35;6.13;;;;;;;16.51;57.63;96403.03;10435963;28;20091;-29
2022/12/21 19:59:38;;;;;;;14.30;4.63;;;;;;;16.52;56.95;96399.66;10429041;28;20037;-30
2022/12/21 20:04:39;;;;;;;13.68;4.20;;;;;;;16.60;54.51;96400.53;10434556;28;20138;-29
2022/12/21 20:09:39;;;;;;;13.20;4.38;;;;;;;16.64;53.11;96392.13;10431804;28;20036;-29
2022/12/21 20:14:45;;;;;;;17.63;4.90;;;;;;;16.65;54.73;96375.25;10433105;28;20532;-29
2022/12/21 20:19:45;;;;;;;14.23;4.82;;;;;;;16.61;56.06;96379.47;10438293;28;20037;-29
2022/12/21 20:24:47;;;;;;;12.18;4.20;;;;;;;16.61;54.90;96382.00;10446826;28;20055;-29
2022/12/21 20:29:48;;;;;;;10.80;4.45;;;;;;;16.63;56.26;96372.72;10431434;28;20051;-29
2022/12/21 20:34:49;;;;;;;11.07;4.25;;;;;;;16.64;55.93;96374.44;10440850;28;20121;-29
2022/12/21 20:39:49;;;;;;;8.98;5.05;;;;;;;16.65;57.24;96357.56;10436569;28;20040;-29
2022/12/21 20:44:53;;;;;;;16.33;4.40;;;;;;;16.62;57.17;96350.81;10444182;28;20095;-28
2022/12/21 20:49:53;;;;;;;11.80;4.53;;;;;;;16.63;57.13;96347.44;10438229;28;20032;-29
2022/12/21 20:56:23;;;;;;;8.93;3.90;;;;;;;16.68;56.52;96328.09;10451082;28;20033;-29
2022/12/21 21:00:21;;;;;;;9.77;3.88;;;;;;;16.70;56.34;96323.88;10441639;28;20036;-29
2022/12/21 21:05:26;;;;;;;8.57;4.15;;;;;;;16.73;56.40;96313.78;10442433;28;20033;-29
2022/12/21 21:10:27;;;;;;;13.88;5.78;;;;;;;16.72;58.11;96339.03;10440903;28;20021;-28
2022/12/21 21:15:27;;;;;;;5.93;2.97;;;;;;;16.69;58.55;96321.38;10433121;28;20025;-29
2022/12/21 21:25:52;;;;;;;7.10;3.65;;;;;;;16.70;57.88;96308.69;10438808;28;20067;-29
2022/12/21 21:30:58;;;;;;;11.52;4.00;;;;;;;16.70;57.63;96291.00;10442039;28;20553;-29
2022/12/21 21:36:00;;;;;;;8.13;4.37;;;;;;;16.73;57.39;96302.81;10435312;28;20033;-29
2022/12/21 21:46:20;;;;;;;10.75;3.78;;;;;;;16.71;57.88;96285.13;10443816;28;20036;-28
2022/12/21 21:51:20;;;;;;;5.80;3.10;;;;;;;16.72;57.70;96278.38;10436306;28;20041;-29
2022/12/21 21:56:41;;;;;;;7.30;3.77;;;;;;;16.75;57.81;96281.75;10446243;28;20033;-29
2022/12/21 22:01:41;;;;;;;9.68;3.60;;;;;;;16.74;58.00;96280.91;10444440;28;20037;-28
2022/12/21 22:06:42;;;;;;;9.13;3.90;;;;;;;16.75;58.00;96281.75;10439816;28;20036;-30
2022/12/21 22:11:46;;;;;;;7.10;3.65;;;;;;;16.73;57.77;96281.75;10435299;28;20039;-29
2022/12/21 22:16:51;;;;;;;6.70;3.45;;;;;;;16.73;58.40;96278.41;10437050;28;20028;-29
2022/12/21 22:32:42;;;;;;;7.70;3.80;;;;;;;16.67;59.54;96279.22;10441968;28;20118;-28
2022/12/21 22:43:02;;;;;;;6.47;3.30;;;;;;;16.66;57.94;96266.59;10443260;28;19965;-29
2022/12/21 22:48:03;;;;;;;7.97;3.00;;;;;;;16.67;58.13;96268.28;10439770;28;20033;-28
2022/12/21 22:53:27;;;;;;;6.25;3.00;;;;;;;16.69;58.29;96261.53;10441013;28;20063;-28
2022/12/21 22:58:34;;;;;;;4.88;2.92;;;;;;;16.66;58.67;96266.59;10434565;28;20029;-31
2022/12/21 23:03:34;;;;;;;5.07;2.60;;;;;;;16.67;58.16;96258.16;10441425;28;20051;-29
2022/12/21 23:08:34;;;;;;;3.50;2.43;;;;;;;16.66;58.52;96256.50;10437565;28;20381;-29
2022/12/21 23:14:47;;;;;;;4.03;2.60;;;;;;;16.65;58.48;96264.91;10436216;28;20032;-29
2022/12/21 23:19:13;;;;;;;6.10;2.80;;;;;;;16.65;58.20;96251.44;10443665;28;20033;-29
2022/12/21 23:29:37;;;;;;;4.70;2.78;;;;;;;16.65;57.55;96259.88;10440103;28;20032;-29
2022/12/21 23:45:19;;;;;;;5.13;2.85;;;;;;;16.63;58.51;96236.25;10437937;28;20460;-29
